<?xml version='1.0' encoding='utf-8'?>
<gpx xmlns="http://www.topografix.com/GPX/1/1" xmlns:om="http://www.oruxmaps.com/oruxmapsextensions/1/0" xmlns:xsi="http://www.w3.org/2001/XMLSchema-instance" creator="OruxMaps v.6.0.7 Donate" version="1.1" xsi:schemaLocation="http://www.topografix.com/GPX/1/1 http://www.topografix.com/GPX/1/1/gpx.xsd">
<metadata>
<name>2015-04-25 10:57</name>
<desc />
<link href="http://www.oruxmaps.com">
<text>OruxMaps</text>
</link>
<time>2015-04-25T07:57:35Z</time><bounds maxlat="35.1108707" maxlon="32.5079957" minlat="34.9719597" minlon="32.2820002" />
</metadata>
<trk>
<name>2015-04-25 10:57</name>
<desc>&lt;h1&gt;OruxMaps&lt;/h1&gt;&lt;br /&gt;&lt;hr align="center" width="480" style="height: 2px; width: 517px"/&gt;&lt;h2&gt;Name: 2015-04-25 10:57&lt;/h2&gt;&lt;br /&gt;&lt;p&gt;Start time: 04/25/2015 10:57&lt;/p&gt;&lt;p&gt;Finish time: 04/25/2015 21:42&lt;/p&gt;&lt;p&gt;Distance: 78.9km (10:44)&lt;/p&gt;&lt;p&gt;Moving time: 06:41&lt;/p&gt;&lt;p&gt;Average speed: 7.3km/h&lt;/p&gt;&lt;p&gt;Avg. Speed Mov.: 11.8km/h&lt;/p&gt;&lt;p&gt;Max. Speed: 40.6km/h&lt;/p&gt;&lt;p&gt;Minimum altitude: 5m&lt;/p&gt;&lt;p&gt;Maximum altitude: 587m&lt;/p&gt;&lt;p&gt;Ascent speed: 387.8m/h&lt;/p&gt;&lt;p&gt;Descent speed: -390.1m/h&lt;/p&gt;&lt;p&gt;Elevation gain: 1615m&lt;/p&gt;&lt;p&gt;Elevation loss: -1595m&lt;/p&gt;&lt;p&gt;Ascent time: 04:10&lt;/p&gt;&lt;p&gt;Descent time: 04:05&lt;/p&gt;&lt;hr align="center" width="480" style="height: 2px; width: 517px"/&gt;</desc>
<type>Undefined</type>
<extensions>
<om:oruxmapsextensions>
<om:ext type="TYPE" subtype="0">0</om:ext>
</om:oruxmapsextensions>
</extensions>
<trkseg>
<trkpt lat="35.1107100" lon="32.5079817">
<ele>5.7</ele>
<time>2015-04-25T07:57:35Z</time>
</trkpt>
<trkpt lat="35.1108401" lon="32.5077211">
<ele>7.4</ele>
<time>2015-04-25T07:59:51Z</time>
</trkpt>
<trkpt lat="35.1105991" lon="32.5075244">
<ele>6.6</ele>
<time>2015-04-25T08:00:04Z</time>
</trkpt>
<trkpt lat="35.1061934" lon="32.5045150">
<ele>4.1</ele>
<time>2015-04-25T08:01:58Z</time>
</trkpt>
<trkpt lat="35.1056321" lon="32.5041687">
<ele>4.9</ele>
<time>2015-04-25T08:02:10Z</time>
</trkpt>
<trkpt lat="35.1039528" lon="32.5036723">
<ele>5.6</ele>
<time>2015-04-25T08:02:42Z</time>
</trkpt>
<trkpt lat="35.0960278" lon="32.4982491">
<ele>5.1</ele>
<time>2015-04-25T08:05:22Z</time>
</trkpt>
<trkpt lat="35.0937827" lon="32.4969366">
<ele>5.0</ele>
<time>2015-04-25T08:06:08Z</time>
</trkpt>
<trkpt lat="35.0884987" lon="32.4922561">
<ele>4.1</ele>
<time>2015-04-25T08:08:07Z</time>
</trkpt>
<trkpt lat="35.0864503" lon="32.4907476">
<ele>2.8</ele>
<time>2015-04-25T08:08:52Z</time>
</trkpt>
<trkpt lat="35.0826504" lon="32.4874878">
<ele>3.6</ele>
<time>2015-04-25T08:10:22Z</time>
</trkpt>
<trkpt lat="35.0796103" lon="32.4846786">
<ele>5.1</ele>
<time>2015-04-25T08:11:36Z</time>
</trkpt>
<trkpt lat="35.0774419" lon="32.4822305">
<ele>3.9</ele>
<time>2015-04-25T08:12:32Z</time>
</trkpt>
<trkpt lat="35.0765564" lon="32.4816865">
<ele>5.6</ele>
<time>2015-04-25T08:12:52Z</time>
</trkpt>
<trkpt lat="35.0694932" lon="32.4733284">
<ele>4.9</ele>
<time>2015-04-25T08:17:36Z</time>
</trkpt>
<trkpt lat="35.0672866" lon="32.4703334">
<ele>7.7</ele>
<time>2015-04-25T08:18:41Z</time>
</trkpt>
<trkpt lat="35.0662950" lon="32.4692837">
<ele>7.1</ele>
<time>2015-04-25T08:19:08Z</time>
</trkpt>
<trkpt lat="35.0648086" lon="32.4664194">
<ele>5.6</ele>
<time>2015-04-25T08:20:01Z</time>
</trkpt>
<trkpt lat="35.0633480" lon="32.4647826">
<ele>6.0</ele>
<time>2015-04-25T08:20:38Z</time>
</trkpt>
<trkpt lat="35.0606917" lon="32.4609997">
<ele>6.9</ele>
<time>2015-04-25T08:21:53Z</time>
</trkpt>
<trkpt lat="35.0599173" lon="32.4591612">
<ele>6.9</ele>
<time>2015-04-25T08:22:25Z</time>
</trkpt>
<trkpt lat="35.0585392" lon="32.4572827">
<ele>3.5</ele>
<time>2015-04-25T08:23:00Z</time>
</trkpt>
<trkpt lat="35.0575350" lon="32.4554272">
<ele>4.0</ele>
<time>2015-04-25T08:23:33Z</time>
</trkpt>
<trkpt lat="35.0570460" lon="32.4549514">
<ele>5.5</ele>
<time>2015-04-25T08:23:56Z</time>
</trkpt>
<trkpt lat="35.0573211" lon="32.4544298">
<ele>4.2</ele>
<time>2015-04-25T08:24:16Z</time>
</trkpt>
<trkpt lat="35.0586217" lon="32.4536748">
<ele>0.0</ele>
<time>2015-04-25T08:26:10Z</time>
</trkpt>
<trkpt lat="35.0573742" lon="32.4544122">
<ele>3.9</ele>
<time>2015-04-25T08:45:21Z</time>
</trkpt>
<trkpt lat="35.0572926" lon="32.4546819">
<ele>5.3</ele>
<time>2015-04-25T08:45:37Z</time>
</trkpt>
<trkpt lat="35.0570015" lon="32.4548805">
<ele>6.0</ele>
<time>2015-04-25T08:45:50Z</time>
</trkpt>
<trkpt lat="35.0555572" lon="32.4548096">
<ele>9.3</ele>
<time>2015-04-25T08:46:26Z</time>
</trkpt>
<trkpt lat="35.0545518" lon="32.4545509">
<ele>14.5</ele>
<time>2015-04-25T08:46:52Z</time>
</trkpt>
<trkpt lat="35.0538442" lon="32.4535236">
<ele>10.6</ele>
<time>2015-04-25T08:47:17Z</time>
</trkpt>
<trkpt lat="35.0506634" lon="32.4470762">
<ele>8.4</ele>
<time>2015-04-25T08:49:16Z</time>
</trkpt>
<trkpt lat="35.0473350" lon="32.4418494">
<ele>9.8</ele>
<time>2015-04-25T08:50:44Z</time>
</trkpt>
<trkpt lat="35.0466255" lon="32.4412774">
<ele>14.3</ele>
<time>2015-04-25T08:50:58Z</time>
</trkpt>
<trkpt lat="35.0459062" lon="32.4409936">
<ele>14.1</ele>
<time>2015-04-25T08:51:13Z</time>
</trkpt>
<trkpt lat="35.0426097" lon="32.4406622">
<ele>25.3</ele>
<time>2015-04-25T08:52:26Z</time>
</trkpt>
<trkpt lat="35.0414140" lon="32.4398277">
<ele>28.3</ele>
<time>2015-04-25T08:52:57Z</time>
</trkpt>
<trkpt lat="35.0397089" lon="32.4367232">
<ele>28.9</ele>
<time>2015-04-25T08:54:08Z</time>
</trkpt>
<trkpt lat="35.0389892" lon="32.4358024">
<ele>25.7</ele>
<time>2015-04-25T08:54:31Z</time>
</trkpt>
<trkpt lat="35.0385710" lon="32.4345597">
<ele>25.0</ele>
<time>2015-04-25T08:54:51Z</time>
</trkpt>
<trkpt lat="35.0374571" lon="32.4329673">
<ele>21.3</ele>
<time>2015-04-25T08:55:29Z</time>
</trkpt>
<trkpt lat="35.0355750" lon="32.4283425">
<ele>30.2</ele>
<time>2015-04-25T08:57:21Z</time>
</trkpt>
<trkpt lat="35.0347307" lon="32.4278959">
<ele>32.0</ele>
<time>2015-04-25T08:57:53Z</time>
</trkpt>
<trkpt lat="35.0340278" lon="32.4272622">
<ele>35.2</ele>
<time>2015-04-25T08:58:21Z</time>
</trkpt>
<trkpt lat="35.0331172" lon="32.4272748">
<ele>37.8</ele>
<time>2015-04-25T08:58:48Z</time>
</trkpt>
<trkpt lat="35.0326295" lon="32.4269980">
<ele>38.7</ele>
<time>2015-04-25T08:59:13Z</time>
</trkpt>
<trkpt lat="35.0335940" lon="32.4256882">
<ele>31.3</ele>
<time>2015-04-25T08:59:52Z</time>
</trkpt>
<trkpt lat="35.0327594" lon="32.4250738">
<ele>19.4</ele>
<time>2015-04-25T09:00:11Z</time>
</trkpt>
<trkpt lat="35.0311275" lon="32.4228705">
<ele>20.0</ele>
<time>2015-04-25T09:01:04Z</time>
</trkpt>
<trkpt lat="35.0303247" lon="32.4204972">
<ele>21.1</ele>
<time>2015-04-25T09:02:07Z</time>
</trkpt>
<trkpt lat="35.0294369" lon="32.4191769">
<ele>21.0</ele>
<time>2015-04-25T09:03:46Z</time>
</trkpt>
<trkpt lat="35.0293132" lon="32.4186941">
<ele>20.1</ele>
<time>2015-04-25T09:21:14Z</time>
</trkpt>
<trkpt lat="35.0288207" lon="32.4179758">
<ele>26.7</ele>
<time>2015-04-25T09:23:27Z</time>
</trkpt>
<trkpt lat="35.0285008" lon="32.4183629">
<ele>28.4</ele>
<time>2015-04-25T09:23:55Z</time>
</trkpt>
<trkpt lat="35.0280512" lon="32.4185325">
<ele>28.3</ele>
<time>2015-04-25T09:24:24Z</time>
</trkpt>
<trkpt lat="35.0275660" lon="32.4177726">
<ele>35.0</ele>
<time>2015-04-25T09:24:59Z</time>
</trkpt>
<trkpt lat="35.0265198" lon="32.4170464">
<ele>48.2</ele>
<time>2015-04-25T09:26:05Z</time>
</trkpt>
<trkpt lat="35.0257201" lon="32.4146180">
<ele>53.8</ele>
<time>2015-04-25T09:27:35Z</time>
</trkpt>
<trkpt lat="35.0250936" lon="32.4137425">
<ele>52.1</ele>
<time>2015-04-25T09:28:00Z</time>
</trkpt>
<trkpt lat="35.0245931" lon="32.4126958">
<ele>59.7</ele>
<time>2015-04-25T09:28:37Z</time>
</trkpt>
<trkpt lat="35.0244184" lon="32.4117320">
<ele>67.2</ele>
<time>2015-04-25T09:29:20Z</time>
</trkpt>
<trkpt lat="35.0240672" lon="32.4109196">
<ele>64.8</ele>
<time>2015-04-25T09:29:42Z</time>
</trkpt>
<trkpt lat="35.0241517" lon="32.4096827">
<ele>69.7</ele>
<time>2015-04-25T09:30:06Z</time>
</trkpt>
<trkpt lat="35.0240474" lon="32.4087068">
<ele>76.5</ele>
<time>2015-04-25T09:30:35Z</time>
</trkpt>
<trkpt lat="35.0231311" lon="32.4067252">
<ele>74.3</ele>
<time>2015-04-25T09:32:41Z</time>
</trkpt>
<trkpt lat="35.0212500" lon="32.4006053">
<ele>83.6</ele>
<time>2015-04-25T09:34:48Z</time>
</trkpt>
<trkpt lat="35.0202921" lon="32.3999029">
<ele>81.7</ele>
<time>2015-04-25T09:37:08Z</time>
</trkpt>
<trkpt lat="35.0193611" lon="32.3997451">
<ele>71.7</ele>
<time>2015-04-25T09:37:18Z</time>
</trkpt>
<trkpt lat="35.0187470" lon="32.3990383">
<ele>69.3</ele>
<time>2015-04-25T09:37:27Z</time>
</trkpt>
<trkpt lat="35.0188018" lon="32.3983629">
<ele>70.8</ele>
<time>2015-04-25T09:37:35Z</time>
</trkpt>
<trkpt lat="35.0199004" lon="32.3977503">
<ele>79.1</ele>
<time>2015-04-25T09:38:27Z</time>
</trkpt>
<trkpt lat="35.0204952" lon="32.3977905">
<ele>80.9</ele>
<time>2015-04-25T09:38:57Z</time>
</trkpt>
<trkpt lat="35.0206285" lon="32.3975649">
<ele>85.3</ele>
<time>2015-04-25T09:39:08Z</time>
</trkpt>
<trkpt lat="35.0205549" lon="32.3972839">
<ele>89.3</ele>
<time>2015-04-25T09:39:20Z</time>
</trkpt>
<trkpt lat="35.0201010" lon="32.3970565">
<ele>95.6</ele>
<time>2015-04-25T09:39:47Z</time>
</trkpt>
<trkpt lat="35.0188873" lon="32.3969726">
<ele>104.9</ele>
<time>2015-04-25T09:40:56Z</time>
</trkpt>
<trkpt lat="35.0177863" lon="32.3966514">
<ele>119.4</ele>
<time>2015-04-25T09:42:13Z</time>
</trkpt>
<trkpt lat="35.0174691" lon="32.3968062">
<ele>121.4</ele>
<time>2015-04-25T09:42:38Z</time>
</trkpt>
<trkpt lat="35.0166210" lon="32.3967218">
<ele>120.9</ele>
<time>2015-04-25T09:43:31Z</time>
</trkpt>
<trkpt lat="35.0140313" lon="32.3951070">
<ele>148.3</ele>
<time>2015-04-25T09:46:27Z</time>
</trkpt>
<trkpt lat="35.0131053" lon="32.3936737">
<ele>168.7</ele>
<time>2015-04-25T09:48:10Z</time>
</trkpt>
<trkpt lat="35.0124967" lon="32.3930177">
<ele>182.3</ele>
<time>2015-04-25T09:48:58Z</time>
</trkpt>
<trkpt lat="35.0104936" lon="32.3917649">
<ele>193.6</ele>
<time>2015-04-25T10:05:20Z</time>
</trkpt>
<trkpt lat="35.0098070" lon="32.3918027">
<ele>200.8</ele>
<time>2015-04-25T10:06:04Z</time>
</trkpt>
<trkpt lat="35.0092276" lon="32.3914038">
<ele>206.2</ele>
<time>2015-04-25T10:06:46Z</time>
</trkpt>
<trkpt lat="35.0068668" lon="32.3915590">
<ele>226.5</ele>
<time>2015-04-25T10:09:29Z</time>
</trkpt>
<trkpt lat="35.0064064" lon="32.3905597">
<ele>234.5</ele>
<time>2015-04-25T10:10:30Z</time>
</trkpt>
<trkpt lat="35.0055074" lon="32.3898151">
<ele>249.0</ele>
<time>2015-04-25T10:11:46Z</time>
</trkpt>
<trkpt lat="35.0051840" lon="32.3886071">
<ele>252.1</ele>
<time>2015-04-25T10:18:51Z</time>
</trkpt>
<trkpt lat="35.0044075" lon="32.3881896">
<ele>260.7</ele>
<time>2015-04-25T10:19:34Z</time>
</trkpt>
<trkpt lat="35.0032318" lon="32.3869453">
<ele>269.6</ele>
<time>2015-04-25T10:20:32Z</time>
</trkpt>
<trkpt lat="35.0026953" lon="32.3860664">
<ele>267.4</ele>
<time>2015-04-25T10:21:08Z</time>
</trkpt>
<trkpt lat="35.0023849" lon="32.3859275">
<ele>264.4</ele>
<time>2015-04-25T10:21:21Z</time>
</trkpt>
<trkpt lat="35.0008412" lon="32.3864008">
<ele>264.7</ele>
<time>2015-04-25T10:21:55Z</time>
</trkpt>
<trkpt lat="35.0016119" lon="32.3852056">
<ele>266.5</ele>
<time>2015-04-25T10:22:47Z</time>
</trkpt>
<trkpt lat="35.0014010" lon="32.3840185">
<ele>274.9</ele>
<time>2015-04-25T10:23:42Z</time>
</trkpt>
<trkpt lat="35.0002506" lon="32.3826816">
<ele>287.6</ele>
<time>2015-04-25T10:25:19Z</time>
</trkpt>
<trkpt lat="34.9989386" lon="32.3816370">
<ele>301.6</ele>
<time>2015-04-25T10:26:47Z</time>
</trkpt>
<trkpt lat="34.9987208" lon="32.3818148">
<ele>302.7</ele>
<time>2015-04-25T10:28:21Z</time>
</trkpt>
<trkpt lat="34.9983870" lon="32.3831404">
<ele>303.0</ele>
<time>2015-04-25T10:31:26Z</time>
</trkpt>
<trkpt lat="34.9980555" lon="32.3834975">
<ele>306.5</ele>
<time>2015-04-25T10:31:43Z</time>
</trkpt>
<trkpt lat="34.9968218" lon="32.3829120">
<ele>317.6</ele>
<time>2015-04-25T10:33:02Z</time>
</trkpt>
<trkpt lat="34.9967934" lon="32.3820835">
<ele>325.0</ele>
<time>2015-04-25T10:33:45Z</time>
</trkpt>
<trkpt lat="34.9962796" lon="32.3825575">
<ele>325.9</ele>
<time>2015-04-25T10:34:28Z</time>
</trkpt>
<trkpt lat="34.9957610" lon="32.3823835">
<ele>333.2</ele>
<time>2015-04-25T10:35:03Z</time>
</trkpt>
<trkpt lat="34.9953767" lon="32.3825885">
<ele>335.9</ele>
<time>2015-04-25T10:35:43Z</time>
</trkpt>
<trkpt lat="34.9946366" lon="32.3824600">
<ele>343.1</ele>
<time>2015-04-25T10:36:22Z</time>
</trkpt>
<trkpt lat="34.9942457" lon="32.3820402">
<ele>347.8</ele>
<time>2015-04-25T10:36:48Z</time>
</trkpt>
<trkpt lat="34.9939603" lon="32.3811880">
<ele>352.7</ele>
<time>2015-04-25T10:37:22Z</time>
</trkpt>
<trkpt lat="34.9929383" lon="32.3806235">
<ele>359.7</ele>
<time>2015-04-25T10:38:28Z</time>
</trkpt>
<trkpt lat="34.9908762" lon="32.3783925">
<ele>381.9</ele>
<time>2015-04-25T10:46:23Z</time>
</trkpt>
<trkpt lat="34.9901702" lon="32.3785147">
<ele>388.1</ele>
<time>2015-04-25T10:47:02Z</time>
</trkpt>
<trkpt lat="34.9893737" lon="32.3783930">
<ele>396.3</ele>
<time>2015-04-25T10:47:53Z</time>
</trkpt>
<trkpt lat="34.9888105" lon="32.3789539">
<ele>399.7</ele>
<time>2015-04-25T10:48:44Z</time>
</trkpt>
<trkpt lat="34.9875529" lon="32.3791955">
<ele>412.6</ele>
<time>2015-04-25T10:59:57Z</time>
</trkpt>
<trkpt lat="34.9872855" lon="32.3798197">
<ele>415.7</ele>
<time>2015-04-25T11:00:36Z</time>
</trkpt>
<trkpt lat="34.9860469" lon="32.3804195">
<ele>424.1</ele>
<time>2015-04-25T11:01:58Z</time>
</trkpt>
<trkpt lat="34.9858736" lon="32.3803350">
<ele>424.4</ele>
<time>2015-04-25T11:02:11Z</time>
</trkpt>
<trkpt lat="34.9851840" lon="32.3790544">
<ele>434.5</ele>
<time>2015-04-25T11:03:32Z</time>
</trkpt>
<trkpt lat="34.9843202" lon="32.3785428">
<ele>444.2</ele>
<time>2015-04-25T11:04:34Z</time>
</trkpt>
<trkpt lat="34.9840310" lon="32.3784817">
<ele>449.2</ele>
<time>2015-04-25T11:04:52Z</time>
</trkpt>
<trkpt lat="34.9835431" lon="32.3792308">
<ele>454.0</ele>
<time>2015-04-25T11:05:29Z</time>
</trkpt>
<trkpt lat="34.9832226" lon="32.3793225">
<ele>454.2</ele>
<time>2015-04-25T11:05:47Z</time>
</trkpt>
<trkpt lat="34.9830922" lon="32.3791213">
<ele>455.2</ele>
<time>2015-04-25T11:05:59Z</time>
</trkpt>
<trkpt lat="34.9833284" lon="32.3775938">
<ele>468.2</ele>
<time>2015-04-25T11:07:08Z</time>
</trkpt>
<trkpt lat="34.9839828" lon="32.3767436">
<ele>474.5</ele>
<time>2015-04-25T11:08:02Z</time>
</trkpt>
<trkpt lat="34.9840834" lon="32.3759139">
<ele>481.4</ele>
<time>2015-04-25T11:08:41Z</time>
</trkpt>
<trkpt lat="34.9833944" lon="32.3746400">
<ele>497.0</ele>
<time>2015-04-25T11:10:32Z</time>
</trkpt>
<trkpt lat="34.9821410" lon="32.3743591">
<ele>511.8</ele>
<time>2015-04-25T11:13:05Z</time>
</trkpt>
<trkpt lat="34.9811783" lon="32.3736852">
<ele>524.8</ele>
<time>2015-04-25T11:15:11Z</time>
</trkpt>
<trkpt lat="34.9796681" lon="32.3742651">
<ele>531.5</ele>
<time>2015-04-25T11:17:49Z</time>
</trkpt>
<trkpt lat="34.9786741" lon="32.3751090">
<ele>538.2</ele>
<time>2015-04-25T11:18:55Z</time>
</trkpt>
<trkpt lat="34.9780523" lon="32.3753224">
<ele>541.8</ele>
<time>2015-04-25T11:19:41Z</time>
</trkpt>
<trkpt lat="34.9769813" lon="32.3752175">
<ele>549.8</ele>
<time>2015-04-25T11:20:37Z</time>
</trkpt>
<trkpt lat="34.9755754" lon="32.3747963">
<ele>561.3</ele>
<time>2015-04-25T11:21:55Z</time>
</trkpt>
<trkpt lat="34.9745994" lon="32.3739356">
<ele>568.1</ele>
<time>2015-04-25T11:22:58Z</time>
</trkpt>
<trkpt lat="34.9719597" lon="32.3745151">
<ele>573.6</ele>
<time>2015-04-25T11:48:32Z</time>
</trkpt>
<trkpt lat="34.9738053" lon="32.3730182">
<ele>555.7</ele>
<time>2015-04-25T11:49:11Z</time>
</trkpt>
<trkpt lat="34.9744067" lon="32.3713970">
<ele>545.9</ele>
<time>2015-04-25T11:50:50Z</time>
</trkpt>
<trkpt lat="34.9755849" lon="32.3694863">
<ele>526.1</ele>
<time>2015-04-25T11:51:15Z</time>
</trkpt>
<trkpt lat="34.9757803" lon="32.3672532">
<ele>521.4</ele>
<time>2015-04-25T11:51:42Z</time>
</trkpt>
<trkpt lat="34.9765299" lon="32.3661122">
<ele>520.2</ele>
<time>2015-04-25T11:51:58Z</time>
</trkpt>
<trkpt lat="34.9775400" lon="32.3627879">
<ele>514.7</ele>
<time>2015-04-25T11:52:53Z</time>
</trkpt>
<trkpt lat="34.9780732" lon="32.3615727">
<ele>515.1</ele>
<time>2015-04-25T11:53:26Z</time>
</trkpt>
<trkpt lat="34.9791558" lon="32.3598217">
<ele>506.3</ele>
<time>2015-04-25T11:53:56Z</time>
</trkpt>
<trkpt lat="34.9799745" lon="32.3572137">
<ele>493.3</ele>
<time>2015-04-25T11:54:28Z</time>
</trkpt>
<trkpt lat="34.9805563" lon="32.3560275">
<ele>493.2</ele>
<time>2015-04-25T11:54:47Z</time>
</trkpt>
<trkpt lat="34.9817571" lon="32.3546370">
<ele>493.6</ele>
<time>2015-04-25T11:55:25Z</time>
</trkpt>
<trkpt lat="34.9820612" lon="32.3547164">
<ele>493.6</ele>
<time>2015-04-25T11:55:44Z</time>
</trkpt>
<trkpt lat="34.9823196" lon="32.3545040">
<ele>498.9</ele>
<time>2015-04-25T11:56:04Z</time>
</trkpt>
<trkpt lat="34.9826026" lon="32.3529562">
<ele>482.7</ele>
<time>2015-04-25T12:03:54Z</time>
</trkpt>
<trkpt lat="34.9835541" lon="32.3517868">
<ele>473.4</ele>
<time>2015-04-25T12:04:56Z</time>
</trkpt>
<trkpt lat="34.9840156" lon="32.3506672">
<ele>479.8</ele>
<time>2015-04-25T12:05:28Z</time>
</trkpt>
<trkpt lat="34.9859652" lon="32.3499062">
<ele>481.4</ele>
<time>2015-04-25T12:06:23Z</time>
</trkpt>
<trkpt lat="34.9879181" lon="32.3475062">
<ele>470.8</ele>
<time>2015-04-25T12:09:07Z</time>
</trkpt>
<trkpt lat="34.9893848" lon="32.3473269">
<ele>464.6</ele>
<time>2015-04-25T12:10:34Z</time>
</trkpt>
<trkpt lat="34.9898831" lon="32.3469707">
<ele>456.8</ele>
<time>2015-04-25T12:10:42Z</time>
</trkpt>
<trkpt lat="34.9905940" lon="32.3468092">
<ele>457.9</ele>
<time>2015-04-25T12:10:52Z</time>
</trkpt>
<trkpt lat="34.9910805" lon="32.3463371">
<ele>456.1</ele>
<time>2015-04-25T12:11:02Z</time>
</trkpt>
<trkpt lat="34.9919421" lon="32.3461335">
<ele>453.9</ele>
<time>2015-04-25T12:11:18Z</time>
</trkpt>
<trkpt lat="34.9930292" lon="32.3454499">
<ele>440.0</ele>
<time>2015-04-25T12:15:18Z</time>
</trkpt>
<trkpt lat="34.9931673" lon="32.3451998">
<ele>440.7</ele>
<time>2015-04-25T12:15:26Z</time>
</trkpt>
<trkpt lat="34.9930631" lon="32.3448553">
<ele>442.9</ele>
<time>2015-04-25T12:15:34Z</time>
</trkpt>
<trkpt lat="34.9935540" lon="32.3443737">
<ele>433.1</ele>
<time>2015-04-25T12:15:48Z</time>
</trkpt>
<trkpt lat="34.9935630" lon="32.3438246">
<ele>432.3</ele>
<time>2015-04-25T12:16:02Z</time>
</trkpt>
<trkpt lat="34.9942169" lon="32.3438806">
<ele>420.0</ele>
<time>2015-04-25T12:16:15Z</time>
</trkpt>
<trkpt lat="34.9950645" lon="32.3445136">
<ele>416.0</ele>
<time>2015-04-25T12:16:33Z</time>
</trkpt>
<trkpt lat="34.9951170" lon="32.3450299">
<ele>411.5</ele>
<time>2015-04-25T12:16:42Z</time>
</trkpt>
<trkpt lat="34.9953774" lon="32.3454521">
<ele>409.7</ele>
<time>2015-04-25T12:16:55Z</time>
</trkpt>
<trkpt lat="34.9958572" lon="32.3453602">
<ele>409.4</ele>
<time>2015-04-25T12:17:06Z</time>
</trkpt>
<trkpt lat="34.9965134" lon="32.3449383">
<ele>406.2</ele>
<time>2015-04-25T12:17:18Z</time>
</trkpt>
<trkpt lat="34.9970591" lon="32.3421738">
<ele>390.3</ele>
<time>2015-04-25T12:23:30Z</time>
</trkpt>
<trkpt lat="34.9976711" lon="32.3416828">
<ele>381.5</ele>
<time>2015-04-25T12:23:41Z</time>
</trkpt>
<trkpt lat="34.9994180" lon="32.3412760">
<ele>373.9</ele>
<time>2015-04-25T12:24:08Z</time>
</trkpt>
<trkpt lat="34.9997797" lon="32.3418203">
<ele>372.6</ele>
<time>2015-04-25T12:24:28Z</time>
</trkpt>
<trkpt lat="35.0000559" lon="32.3418818">
<ele>375.9</ele>
<time>2015-04-25T12:24:42Z</time>
</trkpt>
<trkpt lat="35.0002065" lon="32.3424061">
<ele>373.1</ele>
<time>2015-04-25T12:24:58Z</time>
</trkpt>
<trkpt lat="35.0003757" lon="32.3424238">
<ele>374.2</ele>
<time>2015-04-25T12:25:01Z</time>
</trkpt>
<trkpt lat="35.0010899" lon="32.3411657">
<ele>377.6</ele>
<time>2015-04-25T12:25:21Z</time>
</trkpt>
<trkpt lat="35.0019500" lon="32.3408888">
<ele>361.0</ele>
<time>2015-04-25T12:25:36Z</time>
</trkpt>
<trkpt lat="35.0028236" lon="32.3402408">
<ele>370.8</ele>
<time>2015-04-25T12:26:09Z</time>
</trkpt>
<trkpt lat="35.0050272" lon="32.3400264">
<ele>371.5</ele>
<time>2015-04-25T12:27:23Z</time>
</trkpt>
<trkpt lat="35.0061111" lon="32.3390483">
<ele>369.6</ele>
<time>2015-04-25T12:28:04Z</time>
</trkpt>
<trkpt lat="35.0075293" lon="32.3395455">
<ele>360.3</ele>
<time>2015-04-25T12:28:33Z</time>
</trkpt>
<trkpt lat="35.0082920" lon="32.3389642">
<ele>362.9</ele>
<time>2015-04-25T12:28:53Z</time>
</trkpt>
<trkpt lat="35.0091330" lon="32.3388088">
<ele>359.4</ele>
<time>2015-04-25T12:29:19Z</time>
</trkpt>
<trkpt lat="35.0094080" lon="32.3384110">
<ele>364.2</ele>
<time>2015-04-25T12:29:38Z</time>
</trkpt>
<trkpt lat="35.0099261" lon="32.3387932">
<ele>361.4</ele>
<time>2015-04-25T12:29:58Z</time>
</trkpt>
<trkpt lat="35.0106866" lon="32.3379254">
<ele>364.8</ele>
<time>2015-04-25T12:30:30Z</time>
</trkpt>
<trkpt lat="35.0103703" lon="32.3370766">
<ele>365.2</ele>
<time>2015-04-25T12:30:48Z</time>
</trkpt>
<trkpt lat="35.0112207" lon="32.3361139">
<ele>354.9</ele>
<time>2015-04-25T12:31:06Z</time>
</trkpt>
<trkpt lat="35.0141658" lon="32.3350590">
<ele>343.1</ele>
<time>2015-04-25T12:32:02Z</time>
</trkpt>
<trkpt lat="35.0157114" lon="32.3350570">
<ele>338.0</ele>
<time>2015-04-25T12:32:25Z</time>
</trkpt>
<trkpt lat="35.0161951" lon="32.3344710">
<ele>335.3</ele>
<time>2015-04-25T12:32:35Z</time>
</trkpt>
<trkpt lat="35.0173456" lon="32.3339330">
<ele>343.6</ele>
<time>2015-04-25T12:33:41Z</time>
</trkpt>
<trkpt lat="35.0178705" lon="32.3334658">
<ele>348.9</ele>
<time>2015-04-25T12:41:43Z</time>
</trkpt>
<trkpt lat="35.0181968" lon="32.3326754">
<ele>351.6</ele>
<time>2015-04-25T12:42:22Z</time>
</trkpt>
<trkpt lat="35.0192558" lon="32.3313483">
<ele>343.6</ele>
<time>2015-04-25T12:42:46Z</time>
</trkpt>
<trkpt lat="35.0198111" lon="32.3309386">
<ele>338.5</ele>
<time>2015-04-25T12:43:01Z</time>
</trkpt>
<trkpt lat="35.0199728" lon="32.3303056">
<ele>335.5</ele>
<time>2015-04-25T12:43:11Z</time>
</trkpt>
<trkpt lat="35.0204528" lon="32.3298566">
<ele>330.0</ele>
<time>2015-04-25T12:43:22Z</time>
</trkpt>
<trkpt lat="35.0214596" lon="32.3292671">
<ele>318.4</ele>
<time>2015-04-25T12:43:38Z</time>
</trkpt>
<trkpt lat="35.0221811" lon="32.3292734">
<ele>312.7</ele>
<time>2015-04-25T12:43:48Z</time>
</trkpt>
<trkpt lat="35.0231390" lon="32.3289307">
<ele>313.2</ele>
<time>2015-04-25T12:44:02Z</time>
</trkpt>
<trkpt lat="35.0233446" lon="32.3286292">
<ele>315.6</ele>
<time>2015-04-25T12:44:20Z</time>
</trkpt>
<trkpt lat="35.0233677" lon="32.3282578">
<ele>318.9</ele>
<time>2015-04-25T12:44:44Z</time>
</trkpt>
<trkpt lat="35.0237461" lon="32.3280482">
<ele>324.5</ele>
<time>2015-04-25T12:45:15Z</time>
</trkpt>
<trkpt lat="35.0240390" lon="32.3275638">
<ele>328.6</ele>
<time>2015-04-25T12:45:49Z</time>
</trkpt>
<trkpt lat="35.0248175" lon="32.3272417">
<ele>338.3</ele>
<time>2015-04-25T12:46:34Z</time>
</trkpt>
<trkpt lat="35.0248676" lon="32.3268224">
<ele>333.8</ele>
<time>2015-04-25T12:46:53Z</time>
</trkpt>
<trkpt lat="35.0253492" lon="32.3269804">
<ele>346.2</ele>
<time>2015-04-25T12:49:04Z</time>
</trkpt>
<trkpt lat="35.0256745" lon="32.3266177">
<ele>340.9</ele>
<time>2015-04-25T12:49:27Z</time>
</trkpt>
<trkpt lat="35.0260778" lon="32.3268250">
<ele>351.0</ele>
<time>2015-04-25T12:49:47Z</time>
</trkpt>
<trkpt lat="35.0263687" lon="32.3267244">
<ele>348.3</ele>
<time>2015-04-25T12:50:02Z</time>
</trkpt>
<trkpt lat="35.0267542" lon="32.3259528">
<ele>345.0</ele>
<time>2015-04-25T12:50:36Z</time>
</trkpt>
<trkpt lat="35.0272146" lon="32.3260346">
<ele>353.0</ele>
<time>2015-04-25T12:51:02Z</time>
</trkpt>
<trkpt lat="35.0275191" lon="32.3263504">
<ele>360.0</ele>
<time>2015-04-25T12:51:21Z</time>
</trkpt>
<trkpt lat="35.0286942" lon="32.3264248">
<ele>357.7</ele>
<time>2015-04-25T12:52:07Z</time>
</trkpt>
<trkpt lat="35.0289438" lon="32.3267335">
<ele>364.2</ele>
<time>2015-04-25T12:52:22Z</time>
</trkpt>
<trkpt lat="35.0306434" lon="32.3277430">
<ele>369.1</ele>
<time>2015-04-25T12:53:52Z</time>
</trkpt>
<trkpt lat="35.0314942" lon="32.3273316">
<ele>370.4</ele>
<time>2015-04-25T12:54:30Z</time>
</trkpt>
<trkpt lat="35.0322000" lon="32.3273847">
<ele>365.6</ele>
<time>2015-04-25T12:54:47Z</time>
</trkpt>
<trkpt lat="35.0341721" lon="32.3268380">
<ele>370.5</ele>
<time>2015-04-25T12:55:52Z</time>
</trkpt>
<trkpt lat="35.0351478" lon="32.3268982">
<ele>381.2</ele>
<time>2015-04-25T12:56:59Z</time>
</trkpt>
<trkpt lat="35.0365501" lon="32.3259576">
<ele>378.3</ele>
<time>2015-04-25T12:58:01Z</time>
</trkpt>
<trkpt lat="35.0369560" lon="32.3253315">
<ele>372.2</ele>
<time>2015-04-25T12:58:13Z</time>
</trkpt>
<trkpt lat="35.0370954" lon="32.3242796">
<ele>366.7</ele>
<time>2015-04-25T12:58:26Z</time>
</trkpt>
<trkpt lat="35.0373760" lon="32.3240810">
<ele>367.2</ele>
<time>2015-04-25T12:58:39Z</time>
</trkpt>
<trkpt lat="35.0379621" lon="32.3241752">
<ele>370.8</ele>
<time>2015-04-25T12:59:16Z</time>
</trkpt>
<trkpt lat="35.0382923" lon="32.3235284">
<ele>373.2</ele>
<time>2015-04-25T12:59:31Z</time>
</trkpt>
<trkpt lat="35.0390023" lon="32.3229064">
<ele>371.2</ele>
<time>2015-04-25T12:59:55Z</time>
</trkpt>
<trkpt lat="35.0401548" lon="32.3229878">
<ele>369.5</ele>
<time>2015-04-25T13:01:46Z</time>
</trkpt>
<trkpt lat="35.0412602" lon="32.3225009">
<ele>363.9</ele>
<time>2015-04-25T13:02:20Z</time>
</trkpt>
<trkpt lat="35.0422349" lon="32.3227691">
<ele>368.5</ele>
<time>2015-04-25T13:03:22Z</time>
</trkpt>
<trkpt lat="35.0431704" lon="32.3233043">
<ele>359.6</ele>
<time>2015-04-25T13:03:45Z</time>
</trkpt>
<trkpt lat="35.0446138" lon="32.3227845">
<ele>361.1</ele>
<time>2015-04-25T13:04:20Z</time>
</trkpt>
<trkpt lat="35.0452626" lon="32.3228897">
<ele>359.6</ele>
<time>2015-04-25T13:04:42Z</time>
</trkpt>
<trkpt lat="35.0455732" lon="32.3234585">
<ele>361.2</ele>
<time>2015-04-25T13:04:57Z</time>
</trkpt>
<trkpt lat="35.0459577" lon="32.3236697">
<ele>351.2</ele>
<time>2015-04-25T13:05:10Z</time>
</trkpt>
<trkpt lat="35.0473130" lon="32.3227613">
<ele>335.4</ele>
<time>2015-04-25T13:05:34Z</time>
</trkpt>
<trkpt lat="35.0481651" lon="32.3225643">
<ele>336.3</ele>
<time>2015-04-25T13:05:51Z</time>
</trkpt>
<trkpt lat="35.0484168" lon="32.3227013">
<ele>337.1</ele>
<time>2015-04-25T13:06:02Z</time>
</trkpt>
<trkpt lat="35.0488050" lon="32.3233080">
<ele>341.8</ele>
<time>2015-04-25T13:06:52Z</time>
</trkpt>
<trkpt lat="35.0495138" lon="32.3235318">
<ele>348.4</ele>
<time>2015-04-25T13:07:51Z</time>
</trkpt>
<trkpt lat="35.0497942" lon="32.3233949">
<ele>352.8</ele>
<time>2015-04-25T13:08:20Z</time>
</trkpt>
<trkpt lat="35.0507839" lon="32.3220740">
<ele>363.3</ele>
<time>2015-04-25T13:09:30Z</time>
</trkpt>
<trkpt lat="35.0516266" lon="32.3212504">
<ele>361.7</ele>
<time>2015-04-25T13:09:56Z</time>
</trkpt>
<trkpt lat="35.0525154" lon="32.3211553">
<ele>360.2</ele>
<time>2015-04-25T13:10:21Z</time>
</trkpt>
<trkpt lat="35.0532957" lon="32.3201092">
<ele>343.5</ele>
<time>2015-04-25T13:10:53Z</time>
</trkpt>
<trkpt lat="35.0543773" lon="32.3199332">
<ele>340.8</ele>
<time>2015-04-25T13:11:14Z</time>
</trkpt>
<trkpt lat="35.0551880" lon="32.3201752">
<ele>336.9</ele>
<time>2015-04-25T13:11:35Z</time>
</trkpt>
<trkpt lat="35.0552539" lon="32.3200539">
<ele>338.8</ele>
<time>2015-04-25T13:11:39Z</time>
</trkpt>
<trkpt lat="35.0549166" lon="32.3193030">
<ele>339.2</ele>
<time>2015-04-25T13:11:55Z</time>
</trkpt>
<trkpt lat="35.0550692" lon="32.3188361">
<ele>328.2</ele>
<time>2015-04-25T13:12:01Z</time>
</trkpt>
<trkpt lat="35.0556058" lon="32.3180501">
<ele>320.5</ele>
<time>2015-04-25T13:12:10Z</time>
</trkpt>
<trkpt lat="35.0566409" lon="32.3174734">
<ele>312.3</ele>
<time>2015-04-25T13:12:23Z</time>
</trkpt>
<trkpt lat="35.0572475" lon="32.3166010">
<ele>310.2</ele>
<time>2015-04-25T13:12:35Z</time>
</trkpt>
<trkpt lat="35.0576526" lon="32.3164780">
<ele>310.9</ele>
<time>2015-04-25T13:12:42Z</time>
</trkpt>
<trkpt lat="35.0579654" lon="32.3168203">
<ele>313.5</ele>
<time>2015-04-25T13:13:04Z</time>
</trkpt>
<trkpt lat="35.0584656" lon="32.3165348">
<ele>319.5</ele>
<time>2015-04-25T13:13:55Z</time>
</trkpt>
<trkpt lat="35.0599095" lon="32.3163880">
<ele>325.8</ele>
<time>2015-04-25T13:15:05Z</time>
</trkpt>
<trkpt lat="35.0602295" lon="32.3161058">
<ele>326.7</ele>
<time>2015-04-25T13:15:19Z</time>
</trkpt>
<trkpt lat="35.0604689" lon="32.3150735">
<ele>335.3</ele>
<time>2015-04-25T13:15:51Z</time>
</trkpt>
<trkpt lat="35.0599074" lon="32.3136014">
<ele>325.7</ele>
<time>2015-04-25T13:16:18Z</time>
</trkpt>
<trkpt lat="35.0599912" lon="32.3128248">
<ele>317.8</ele>
<time>2015-04-25T13:16:26Z</time>
</trkpt>
<trkpt lat="35.0604229" lon="32.3121466">
<ele>314.6</ele>
<time>2015-04-25T13:16:35Z</time>
</trkpt>
<trkpt lat="35.0615765" lon="32.3111336">
<ele>302.9</ele>
<time>2015-04-25T13:16:53Z</time>
</trkpt>
<trkpt lat="35.0629222" lon="32.3094935">
<ele>283.3</ele>
<time>2015-04-25T13:17:18Z</time>
</trkpt>
<trkpt lat="35.0637139" lon="32.3072033">
<ele>270.1</ele>
<time>2015-04-25T13:17:49Z</time>
</trkpt>
<trkpt lat="35.0641156" lon="32.3066220">
<ele>267.9</ele>
<time>2015-04-25T13:18:06Z</time>
</trkpt>
<trkpt lat="35.0652199" lon="32.3056370">
<ele>258.1</ele>
<time>2015-04-25T13:21:36Z</time>
</trkpt>
<trkpt lat="35.0658622" lon="32.3040380">
<ele>241.9</ele>
<time>2015-04-25T13:22:52Z</time>
</trkpt>
<trkpt lat="35.0673862" lon="32.3012794">
<ele>221.4</ele>
<time>2015-04-25T13:23:33Z</time>
</trkpt>
<trkpt lat="35.0678554" lon="32.3007310">
<ele>220.5</ele>
<time>2015-04-25T13:23:49Z</time>
</trkpt>
<trkpt lat="35.0690025" lon="32.3005625">
<ele>219.1</ele>
<time>2015-04-25T13:24:38Z</time>
</trkpt>
<trkpt lat="35.0694864" lon="32.2992920">
<ele>219.6</ele>
<time>2015-04-25T13:25:12Z</time>
</trkpt>
<trkpt lat="35.0704006" lon="32.2980200">
<ele>219.0</ele>
<time>2015-04-25T13:26:03Z</time>
</trkpt>
<trkpt lat="35.0712407" lon="32.2977466">
<ele>213.9</ele>
<time>2015-04-25T13:26:22Z</time>
</trkpt>
<trkpt lat="35.0716276" lon="32.2972816">
<ele>212.6</ele>
<time>2015-04-25T13:26:34Z</time>
</trkpt>
<trkpt lat="35.0735457" lon="32.2960750">
<ele>208.5</ele>
<time>2015-04-25T13:27:45Z</time>
</trkpt>
<trkpt lat="35.0739235" lon="32.2956774">
<ele>209.6</ele>
<time>2015-04-25T13:28:03Z</time>
</trkpt>
<trkpt lat="35.0746312" lon="32.2955302">
<ele>204.1</ele>
<time>2015-04-25T13:28:35Z</time>
</trkpt>
<trkpt lat="35.0750996" lon="32.2944989">
<ele>193.8</ele>
<time>2015-04-25T13:28:51Z</time>
</trkpt>
<trkpt lat="35.0778635" lon="32.2912664">
<ele>183.6</ele>
<time>2015-04-25T13:32:11Z</time>
</trkpt>
<trkpt lat="35.0785042" lon="32.2902075">
<ele>173.5</ele>
<time>2015-04-25T13:32:29Z</time>
</trkpt>
<trkpt lat="35.0786268" lon="32.2894535">
<ele>167.5</ele>
<time>2015-04-25T13:32:41Z</time>
</trkpt>
<trkpt lat="35.0795211" lon="32.2891937">
<ele>161.0</ele>
<time>2015-04-25T13:33:06Z</time>
</trkpt>
<trkpt lat="35.0801006" lon="32.2880252">
<ele>158.7</ele>
<time>2015-04-25T13:33:34Z</time>
</trkpt>
<trkpt lat="35.0804333" lon="32.2878845">
<ele>159.1</ele>
<time>2015-04-25T13:33:53Z</time>
</trkpt>
<trkpt lat="35.0808220" lon="32.2874009">
<ele>164.1</ele>
<time>2015-04-25T13:35:06Z</time>
</trkpt>
<trkpt lat="35.0813358" lon="32.2871958">
<ele>165.1</ele>
<time>2015-04-25T13:36:13Z</time>
</trkpt>
<trkpt lat="35.0838742" lon="32.2871735">
<ele>173.9</ele>
<time>2015-04-25T13:38:45Z</time>
</trkpt>
<trkpt lat="35.0846380" lon="32.2867031">
<ele>177.1</ele>
<time>2015-04-25T13:39:34Z</time>
</trkpt>
<trkpt lat="35.0849533" lon="32.2861854">
<ele>182.5</ele>
<time>2015-04-25T13:40:10Z</time>
</trkpt>
<trkpt lat="35.0855746" lon="32.2857073">
<ele>183.6</ele>
<time>2015-04-25T13:40:51Z</time>
</trkpt>
<trkpt lat="35.0856433" lon="32.2854535">
<ele>186.4</ele>
<time>2015-04-25T13:41:03Z</time>
</trkpt>
<trkpt lat="35.0866829" lon="32.2847949">
<ele>179.6</ele>
<time>2015-04-25T13:41:30Z</time>
</trkpt>
<trkpt lat="35.0876913" lon="32.2849171">
<ele>186.4</ele>
<time>2015-04-25T13:42:00Z</time>
</trkpt>
<trkpt lat="35.0883772" lon="32.2844698">
<ele>186.9</ele>
<time>2015-04-25T13:42:37Z</time>
</trkpt>
<trkpt lat="35.0890756" lon="32.2842828">
<ele>194.8</ele>
<time>2015-04-25T13:44:21Z</time>
</trkpt>
<trkpt lat="35.0896610" lon="32.2833935">
<ele>192.1</ele>
<time>2015-04-25T13:44:53Z</time>
</trkpt>
<trkpt lat="35.0902177" lon="32.2830857">
<ele>199.8</ele>
<time>2015-04-25T13:45:30Z</time>
</trkpt>
<trkpt lat="35.0907499" lon="32.2830504">
<ele>198.5</ele>
<time>2015-04-25T13:46:02Z</time>
</trkpt>
<trkpt lat="35.0911698" lon="32.2822608">
<ele>203.8</ele>
<time>2015-04-25T13:48:06Z</time>
</trkpt>
<trkpt lat="35.0910140" lon="32.2820002">
<ele>201.1</ele>
<time>2015-04-25T13:48:52Z</time>
</trkpt>
<trkpt lat="35.0911202" lon="32.2821090">
<ele>204.3</ele>
<time>2015-04-25T13:51:44Z</time>
</trkpt>
<trkpt lat="35.0909192" lon="32.2829212">
<ele>197.6</ele>
<time>2015-04-25T14:15:12Z</time>
</trkpt>
<trkpt lat="35.0897362" lon="32.2833488">
<ele>194.0</ele>
<time>2015-04-25T14:18:29Z</time>
</trkpt>
<trkpt lat="35.0889680" lon="32.2843652">
<ele>195.7</ele>
<time>2015-04-25T14:19:53Z</time>
</trkpt>
<trkpt lat="35.0876723" lon="32.2849159">
<ele>186.2</ele>
<time>2015-04-25T14:20:30Z</time>
</trkpt>
<trkpt lat="35.0866516" lon="32.2848700">
<ele>182.0</ele>
<time>2015-04-25T14:20:51Z</time>
</trkpt>
<trkpt lat="35.0856142" lon="32.2854874">
<ele>186.2</ele>
<time>2015-04-25T14:21:44Z</time>
</trkpt>
<trkpt lat="35.0845592" lon="32.2867471">
<ele>176.9</ele>
<time>2015-04-25T14:22:29Z</time>
</trkpt>
<trkpt lat="35.0838261" lon="32.2871724">
<ele>173.9</ele>
<time>2015-04-25T14:22:46Z</time>
</trkpt>
<trkpt lat="35.0811868" lon="32.2872196">
<ele>165.1</ele>
<time>2015-04-25T14:23:36Z</time>
</trkpt>
<trkpt lat="35.0801175" lon="32.2879649">
<ele>158.9</ele>
<time>2015-04-25T14:24:11Z</time>
</trkpt>
<trkpt lat="35.0799977" lon="32.2882101">
<ele>158.2</ele>
<time>2015-04-25T14:24:16Z</time>
</trkpt>
<trkpt lat="35.0800056" lon="32.2884164">
<ele>158.3</ele>
<time>2015-04-25T14:24:23Z</time>
</trkpt>
<trkpt lat="35.0819778" lon="32.2914566">
<ele>136.8</ele>
<time>2015-04-25T14:26:50Z</time>
</trkpt>
<trkpt lat="35.0810401" lon="32.2924180">
<ele>123.7</ele>
<time>2015-04-25T14:27:20Z</time>
</trkpt>
<trkpt lat="35.0808205" lon="32.2924726">
<ele>127.4</ele>
<time>2015-04-25T14:27:26Z</time>
</trkpt>
<trkpt lat="35.0804595" lon="32.2932264">
<ele>112.6</ele>
<time>2015-04-25T14:27:49Z</time>
</trkpt>
<trkpt lat="35.0812746" lon="32.2936854">
<ele>95.3</ele>
<time>2015-04-25T14:28:05Z</time>
</trkpt>
<trkpt lat="35.0822598" lon="32.2945644">
<ele>74.7</ele>
<time>2015-04-25T14:28:31Z</time>
</trkpt>
<trkpt lat="35.0834053" lon="32.2951693">
<ele>65.1</ele>
<time>2015-04-25T14:28:47Z</time>
</trkpt>
<trkpt lat="35.0846916" lon="32.2973063">
<ele>46.5</ele>
<time>2015-04-25T14:29:18Z</time>
</trkpt>
<trkpt lat="35.0853781" lon="32.2980979">
<ele>43.5</ele>
<time>2015-04-25T14:29:43Z</time>
</trkpt>
<trkpt lat="35.0860430" lon="32.2985099">
<ele>41.7</ele>
<time>2015-04-25T14:30:36Z</time>
</trkpt>
<trkpt lat="35.0865951" lon="32.2990985">
<ele>35.6</ele>
<time>2015-04-25T14:30:51Z</time>
</trkpt>
<trkpt lat="35.0865719" lon="32.2992847">
<ele>32.5</ele>
<time>2015-04-25T14:31:58Z</time>
</trkpt>
<trkpt lat="35.0857546" lon="32.2994084">
<ele>28.2</ele>
<time>2015-04-25T14:32:24Z</time>
</trkpt>
<trkpt lat="35.0857227" lon="32.3000064">
<ele>33.8</ele>
<time>2015-04-25T14:32:37Z</time>
</trkpt>
<trkpt lat="35.0859401" lon="32.3002972">
<ele>31.3</ele>
<time>2015-04-25T14:32:55Z</time>
</trkpt>
<trkpt lat="35.0873242" lon="32.3004282">
<ele>19.9</ele>
<time>2015-04-25T14:34:11Z</time>
</trkpt>
<trkpt lat="35.0900459" lon="32.3002302">
<ele>8.3</ele>
<time>2015-04-25T14:34:54Z</time>
</trkpt>
<trkpt lat="35.0906702" lon="32.3008257">
<ele>7.1</ele>
<time>2015-04-25T14:35:22Z</time>
</trkpt>
<trkpt lat="35.0914610" lon="32.3011224">
<ele>6.1</ele>
<time>2015-04-25T14:35:59Z</time>
</trkpt>
<trkpt lat="35.0923289" lon="32.3001564">
<ele>8.3</ele>
<time>2015-04-25T14:40:35Z</time>
</trkpt>
<trkpt lat="35.0923954" lon="32.2996918">
<ele>10.1</ele>
<time>2015-04-25T14:40:49Z</time>
</trkpt>
<trkpt lat="35.0922716" lon="32.2993609">
<ele>11.6</ele>
<time>2015-04-25T14:41:04Z</time>
</trkpt>
<trkpt lat="35.0926510" lon="32.2982297">
<ele>9.7</ele>
<time>2015-04-25T14:41:57Z</time>
</trkpt>
<trkpt lat="35.0926982" lon="32.2974715">
<ele>13.6</ele>
<time>2015-04-25T14:42:32Z</time>
</trkpt>
<trkpt lat="35.0932483" lon="32.2971302">
<ele>12.3</ele>
<time>2015-04-25T14:43:05Z</time>
</trkpt>
<trkpt lat="35.0936023" lon="32.2963303">
<ele>14.8</ele>
<time>2015-04-25T14:43:38Z</time>
</trkpt>
<trkpt lat="35.0938244" lon="32.2963618">
<ele>14.0</ele>
<time>2015-04-25T14:43:48Z</time>
</trkpt>
<trkpt lat="35.0940420" lon="32.2957257">
<ele>17.3</ele>
<time>2015-04-25T14:44:20Z</time>
</trkpt>
<trkpt lat="35.0949679" lon="32.2949612">
<ele>16.8</ele>
<time>2015-04-25T14:45:04Z</time>
</trkpt>
<trkpt lat="35.0954727" lon="32.2947767">
<ele>17.0</ele>
<time>2015-04-25T14:45:24Z</time>
</trkpt>
<trkpt lat="35.0957354" lon="32.2926503">
<ele>20.8</ele>
<time>2015-04-25T14:46:46Z</time>
</trkpt>
<trkpt lat="35.0960677" lon="32.2924312">
<ele>20.4</ele>
<time>2015-04-25T14:47:05Z</time>
</trkpt>
<trkpt lat="35.0960291" lon="32.2921032">
<ele>21.3</ele>
<time>2015-04-25T14:47:17Z</time>
</trkpt>
<trkpt lat="35.0961871" lon="32.2918759">
<ele>21.2</ele>
<time>2015-04-25T14:47:28Z</time>
</trkpt>
<trkpt lat="35.0967170" lon="32.2914300">
<ele>22.0</ele>
<time>2015-04-25T14:47:57Z</time>
</trkpt>
<trkpt lat="35.0969807" lon="32.2904764">
<ele>24.8</ele>
<time>2015-04-25T14:48:32Z</time>
</trkpt>
<trkpt lat="35.0975903" lon="32.2902731">
<ele>23.4</ele>
<time>2015-04-25T14:48:59Z</time>
</trkpt>
<trkpt lat="35.0978238" lon="32.2897460">
<ele>25.7</ele>
<time>2015-04-25T14:49:21Z</time>
</trkpt>
<trkpt lat="35.0981975" lon="32.2894563">
<ele>24.5</ele>
<time>2015-04-25T14:49:42Z</time>
</trkpt>
<trkpt lat="35.0983179" lon="32.2886361">
<ele>26.6</ele>
<time>2015-04-25T14:50:20Z</time>
</trkpt>
<trkpt lat="35.0987599" lon="32.2880030">
<ele>25.0</ele>
<time>2015-04-25T14:50:37Z</time>
</trkpt>
<trkpt lat="35.0995596" lon="32.2875581">
<ele>24.6</ele>
<time>2015-04-25T14:51:05Z</time>
</trkpt>
<trkpt lat="35.1001440" lon="32.2875426">
<ele>20.7</ele>
<time>2015-04-25T14:51:19Z</time>
</trkpt>
<trkpt lat="35.1005398" lon="32.2873018">
<ele>20.3</ele>
<time>2015-04-25T14:51:30Z</time>
</trkpt>
<trkpt lat="35.1006733" lon="32.2867843">
<ele>22.3</ele>
<time>2015-04-25T14:51:48Z</time>
</trkpt>
<trkpt lat="35.1011157" lon="32.2865802">
<ele>21.5</ele>
<time>2015-04-25T14:52:21Z</time>
</trkpt>
<trkpt lat="35.1015601" lon="32.2856955">
<ele>18.9</ele>
<time>2015-04-25T14:52:58Z</time>
</trkpt>
<trkpt lat="35.1020560" lon="32.2854077">
<ele>13.1</ele>
<time>2015-04-25T14:54:05Z</time>
</trkpt>
<trkpt lat="35.1021488" lon="32.2846294">
<ele>12.2</ele>
<time>2015-04-25T14:54:23Z</time>
</trkpt>
<trkpt lat="35.1030413" lon="32.2836437">
<ele>4.3</ele>
<time>2015-04-25T14:55:06Z</time>
</trkpt>
<trkpt lat="35.1036397" lon="32.2834632">
<ele>3.2</ele>
<time>2015-04-25T14:55:46Z</time>
</trkpt>
<trkpt lat="35.1037218" lon="32.2838296">
<ele>3.5</ele>
<time>2015-04-25T14:56:03Z</time>
</trkpt>
<trkpt lat="35.1043725" lon="32.2840412">
<ele>3.2</ele>
<time>2015-04-25T14:56:23Z</time>
</trkpt>
<trkpt lat="35.1048275" lon="32.2848349">
<ele>2.9</ele>
<time>2015-04-25T14:57:10Z</time>
</trkpt>
<trkpt lat="35.1050681" lon="32.2849914">
<ele>2.6</ele>
<time>2015-04-25T14:57:26Z</time>
</trkpt>
<trkpt lat="35.1047440" lon="32.2864076">
<ele>1.2</ele>
<time>2015-04-25T14:58:37Z</time>
</trkpt>
<trkpt lat="35.1049668" lon="32.2872222">
<ele>1.6</ele>
<time>2015-04-25T15:07:42Z</time>
</trkpt>
<trkpt lat="35.1047653" lon="32.2875552">
<ele>0.2</ele>
<time>2015-04-25T15:08:51Z</time>
</trkpt>
<trkpt lat="35.1048791" lon="32.2875196">
<ele>0.5</ele>
<time>2015-04-25T15:13:58Z</time>
</trkpt>
<trkpt lat="35.1044367" lon="32.2872440">
<ele>0.8</ele>
<time>2015-04-25T15:24:06Z</time>
</trkpt>
<trkpt lat="35.1032233" lon="32.2875264">
<ele>2.5</ele>
<time>2015-04-25T15:25:18Z</time>
</trkpt>
<trkpt lat="35.1031135" lon="32.2877140">
<ele>1.5</ele>
<time>2015-04-25T15:25:50Z</time>
</trkpt>
<trkpt lat="35.1025950" lon="32.2876218">
<ele>3.7</ele>
<time>2015-04-25T15:26:22Z</time>
</trkpt>
<trkpt lat="35.1023949" lon="32.2882792">
<ele>7.2</ele>
<time>2015-04-25T15:27:14Z</time>
</trkpt>
<trkpt lat="35.1024493" lon="32.2886870">
<ele>5.3</ele>
<time>2015-04-25T15:27:48Z</time>
</trkpt>
<trkpt lat="35.1021305" lon="32.2888878">
<ele>3.6</ele>
<time>2015-04-25T15:28:09Z</time>
</trkpt>
<trkpt lat="35.1013558" lon="32.2887345">
<ele>6.7</ele>
<time>2015-04-25T15:28:38Z</time>
</trkpt>
<trkpt lat="35.1007614" lon="32.2884127">
<ele>11.5</ele>
<time>2015-04-25T15:29:16Z</time>
</trkpt>
<trkpt lat="35.1006818" lon="32.2889938">
<ele>10.5</ele>
<time>2015-04-25T15:29:32Z</time>
</trkpt>
<trkpt lat="35.1008563" lon="32.2899146">
<ele>7.0</ele>
<time>2015-04-25T15:29:59Z</time>
</trkpt>
<trkpt lat="35.1004746" lon="32.2922464">
<ele>7.8</ele>
<time>2015-04-25T15:31:16Z</time>
</trkpt>
<trkpt lat="35.0999426" lon="32.2926616">
<ele>9.1</ele>
<time>2015-04-25T15:31:57Z</time>
</trkpt>
<trkpt lat="35.0993602" lon="32.2928623">
<ele>7.5</ele>
<time>2015-04-25T15:32:29Z</time>
</trkpt>
<trkpt lat="35.0990433" lon="32.2935933">
<ele>2.4</ele>
<time>2015-04-25T15:32:52Z</time>
</trkpt>
<trkpt lat="35.0986556" lon="32.2936016">
<ele>5.0</ele>
<time>2015-04-25T15:33:29Z</time>
</trkpt>
<trkpt lat="35.0984655" lon="32.2938928">
<ele>4.3</ele>
<time>2015-04-25T15:33:39Z</time>
</trkpt>
<trkpt lat="35.0979074" lon="32.2939284">
<ele>2.9</ele>
<time>2015-04-25T15:34:03Z</time>
</trkpt>
<trkpt lat="35.0973038" lon="32.2942535">
<ele>5.5</ele>
<time>2015-04-25T15:34:35Z</time>
</trkpt>
<trkpt lat="35.0972133" lon="32.2947436">
<ele>3.2</ele>
<time>2015-04-25T15:35:11Z</time>
</trkpt>
<trkpt lat="35.0963279" lon="32.2960305">
<ele>2.3</ele>
<time>2015-04-25T15:37:33Z</time>
</trkpt>
<trkpt lat="35.0956619" lon="32.2965440">
<ele>1.5</ele>
<time>2015-04-25T15:38:03Z</time>
</trkpt>
<trkpt lat="35.0952291" lon="32.2966402">
<ele>2.7</ele>
<time>2015-04-25T15:38:18Z</time>
</trkpt>
<trkpt lat="35.0939388" lon="32.2976562">
<ele>3.4</ele>
<time>2015-04-25T15:39:32Z</time>
</trkpt>
<trkpt lat="35.0934199" lon="32.2984092">
<ele>4.8</ele>
<time>2015-04-25T15:40:05Z</time>
</trkpt>
<trkpt lat="35.0928156" lon="32.2984550">
<ele>7.9</ele>
<time>2015-04-25T15:40:40Z</time>
</trkpt>
<trkpt lat="35.0923348" lon="32.2989115">
<ele>11.3</ele>
<time>2015-04-25T15:41:17Z</time>
</trkpt>
<trkpt lat="35.0922887" lon="32.3001452">
<ele>8.6</ele>
<time>2015-04-25T15:42:03Z</time>
</trkpt>
<trkpt lat="35.0914124" lon="32.3010965">
<ele>6.2</ele>
<time>2015-04-25T15:42:54Z</time>
</trkpt>
<trkpt lat="35.0907784" lon="32.3024802">
<ele>3.9</ele>
<time>2015-04-25T15:43:48Z</time>
</trkpt>
<trkpt lat="35.0905366" lon="32.3024340">
<ele>3.1</ele>
<time>2015-04-25T15:44:01Z</time>
</trkpt>
<trkpt lat="35.0902854" lon="32.3011375">
<ele>4.0</ele>
<time>2015-04-25T15:44:52Z</time>
</trkpt>
<trkpt lat="35.0896889" lon="32.3006340">
<ele>4.3</ele>
<time>2015-04-25T15:45:19Z</time>
</trkpt>
<trkpt lat="35.0888419" lon="32.3005506">
<ele>8.1</ele>
<time>2015-04-25T15:47:20Z</time>
</trkpt>
<trkpt lat="35.0881662" lon="32.3011590">
<ele>7.9</ele>
<time>2015-04-25T15:48:02Z</time>
</trkpt>
<trkpt lat="35.0881716" lon="32.3012731">
<ele>6.6</ele>
<time>2015-04-25T15:48:07Z</time>
</trkpt>
<trkpt lat="35.0883503" lon="32.3011748">
<ele>4.9</ele>
<time>2015-04-25T15:49:17Z</time>
</trkpt>
<trkpt lat="35.0879678" lon="32.3014514">
<ele>8.1</ele>
<time>2015-04-25T15:50:16Z</time>
</trkpt>
<trkpt lat="35.0873860" lon="32.3024920">
<ele>8.3</ele>
<time>2015-04-25T15:50:46Z</time>
</trkpt>
<trkpt lat="35.0867624" lon="32.3029202">
<ele>8.5</ele>
<time>2015-04-25T15:51:08Z</time>
</trkpt>
<trkpt lat="35.0863683" lon="32.3034200">
<ele>9.7</ele>
<time>2015-04-25T15:51:26Z</time>
</trkpt>
<trkpt lat="35.0858172" lon="32.3037345">
<ele>9.6</ele>
<time>2015-04-25T15:51:42Z</time>
</trkpt>
<trkpt lat="35.0839503" lon="32.3040281">
<ele>10.6</ele>
<time>2015-04-25T15:52:31Z</time>
</trkpt>
<trkpt lat="35.0834760" lon="32.3043786">
<ele>10.0</ele>
<time>2015-04-25T15:52:45Z</time>
</trkpt>
<trkpt lat="35.0826737" lon="32.3053116">
<ele>11.6</ele>
<time>2015-04-25T15:53:14Z</time>
</trkpt>
<trkpt lat="35.0817091" lon="32.3070492">
<ele>11.0</ele>
<time>2015-04-25T15:54:00Z</time>
</trkpt>
<trkpt lat="35.0811396" lon="32.3076681">
<ele>13.7</ele>
<time>2015-04-25T15:54:27Z</time>
</trkpt>
<trkpt lat="35.0809252" lon="32.3082745">
<ele>14.1</ele>
<time>2015-04-25T15:54:45Z</time>
</trkpt>
<trkpt lat="35.0800049" lon="32.3087425">
<ele>14.1</ele>
<time>2015-04-25T15:55:13Z</time>
</trkpt>
<trkpt lat="35.0794100" lon="32.3099666">
<ele>14.5</ele>
<time>2015-04-25T15:55:44Z</time>
</trkpt>
<trkpt lat="35.0786339" lon="32.3107183">
<ele>13.3</ele>
<time>2015-04-25T15:56:08Z</time>
</trkpt>
<trkpt lat="35.0771482" lon="32.3132261">
<ele>12.0</ele>
<time>2015-04-25T15:57:12Z</time>
</trkpt>
<trkpt lat="35.0747149" lon="32.3158273">
<ele>10.1</ele>
<time>2015-04-25T15:58:33Z</time>
</trkpt>
<trkpt lat="35.0744630" lon="32.3166620">
<ele>9.7</ele>
<time>2015-04-25T15:58:52Z</time>
</trkpt>
<trkpt lat="35.0744897" lon="32.3173632">
<ele>8.1</ele>
<time>2015-04-25T15:59:08Z</time>
</trkpt>
<trkpt lat="35.0742508" lon="32.3183553">
<ele>13.4</ele>
<time>2015-04-25T15:59:35Z</time>
</trkpt>
<trkpt lat="35.0738010" lon="32.3193032">
<ele>7.0</ele>
<time>2015-04-25T16:00:16Z</time>
</trkpt>
<trkpt lat="35.0733826" lon="32.3196215">
<ele>6.1</ele>
<time>2015-04-25T16:00:25Z</time>
</trkpt>
<trkpt lat="35.0730513" lon="32.3201581">
<ele>10.5</ele>
<time>2015-04-25T16:00:38Z</time>
</trkpt>
<trkpt lat="35.0730250" lon="32.3206552">
<ele>10.9</ele>
<time>2015-04-25T16:00:48Z</time>
</trkpt>
<trkpt lat="35.0731513" lon="32.3207801">
<ele>10.1</ele>
<time>2015-04-25T16:00:57Z</time>
</trkpt>
<trkpt lat="35.0730134" lon="32.3207019">
<ele>11.0</ele>
<time>2015-04-25T16:05:46Z</time>
</trkpt>
<trkpt lat="35.0726799" lon="32.3209540">
<ele>12.8</ele>
<time>2015-04-25T16:06:09Z</time>
</trkpt>
<trkpt lat="35.0718737" lon="32.3211628">
<ele>17.4</ele>
<time>2015-04-25T16:06:46Z</time>
</trkpt>
<trkpt lat="35.0714917" lon="32.3210740">
<ele>18.4</ele>
<time>2015-04-25T16:07:09Z</time>
</trkpt>
<trkpt lat="35.0710934" lon="32.3206233">
<ele>24.8</ele>
<time>2015-04-25T16:07:46Z</time>
</trkpt>
<trkpt lat="35.0703130" lon="32.3214637">
<ele>28.2</ele>
<time>2015-04-25T16:08:31Z</time>
</trkpt>
<trkpt lat="35.0703439" lon="32.3241992">
<ele>25.3</ele>
<time>2015-04-25T16:09:30Z</time>
</trkpt>
<trkpt lat="35.0702277" lon="32.3249459">
<ele>25.2</ele>
<time>2015-04-25T16:12:12Z</time>
</trkpt>
<trkpt lat="35.0699963" lon="32.3256372">
<ele>24.0</ele>
<time>2015-04-25T16:12:30Z</time>
</trkpt>
<trkpt lat="35.0697070" lon="32.3259742">
<ele>32.9</ele>
<time>2015-04-25T16:16:02Z</time>
</trkpt>
<trkpt lat="35.0694658" lon="32.3280005">
<ele>40.2</ele>
<time>2015-04-25T16:17:28Z</time>
</trkpt>
<trkpt lat="35.0688536" lon="32.3294780">
<ele>54.1</ele>
<time>2015-04-25T16:19:03Z</time>
</trkpt>
<trkpt lat="35.0679809" lon="32.3304332">
<ele>60.8</ele>
<time>2015-04-25T16:25:44Z</time>
</trkpt>
<trkpt lat="35.0679438" lon="32.3307869">
<ele>53.4</ele>
<time>2015-04-25T16:26:00Z</time>
</trkpt>
<trkpt lat="35.0672872" lon="32.3316573">
<ele>44.9</ele>
<time>2015-04-25T16:26:36Z</time>
</trkpt>
<trkpt lat="35.0669022" lon="32.3318036">
<ele>48.3</ele>
<time>2015-04-25T16:26:48Z</time>
</trkpt>
<trkpt lat="35.0660518" lon="32.3325400">
<ele>45.4</ele>
<time>2015-04-25T16:27:18Z</time>
</trkpt>
<trkpt lat="35.0654682" lon="32.3336018">
<ele>38.6</ele>
<time>2015-04-25T16:27:35Z</time>
</trkpt>
<trkpt lat="35.0642810" lon="32.3346684">
<ele>41.0</ele>
<time>2015-04-25T16:30:28Z</time>
</trkpt>
<trkpt lat="35.0640272" lon="32.3352477">
<ele>37.8</ele>
<time>2015-04-25T16:30:54Z</time>
</trkpt>
<trkpt lat="35.0633018" lon="32.3361854">
<ele>36.6</ele>
<time>2015-04-25T16:31:24Z</time>
</trkpt>
<trkpt lat="35.0622440" lon="32.3369128">
<ele>52.6</ele>
<time>2015-04-25T16:34:23Z</time>
</trkpt>
<trkpt lat="35.0618023" lon="32.3380678">
<ele>77.7</ele>
<time>2015-04-25T16:37:01Z</time>
</trkpt>
<trkpt lat="35.0618045" lon="32.3395029">
<ele>69.5</ele>
<time>2015-04-25T16:38:55Z</time>
</trkpt>
<trkpt lat="35.0616749" lon="32.3398079">
<ele>62.6</ele>
<time>2015-04-25T16:39:03Z</time>
</trkpt>
<trkpt lat="35.0602606" lon="32.3406630">
<ele>62.8</ele>
<time>2015-04-25T16:39:59Z</time>
</trkpt>
<trkpt lat="35.0594885" lon="32.3415848">
<ele>66.2</ele>
<time>2015-04-25T16:40:24Z</time>
</trkpt>
<trkpt lat="35.0593356" lon="32.3420324">
<ele>52.8</ele>
<time>2015-04-25T16:40:50Z</time>
</trkpt>
<trkpt lat="35.0588151" lon="32.3421372">
<ele>55.6</ele>
<time>2015-04-25T16:41:02Z</time>
</trkpt>
<trkpt lat="35.0581242" lon="32.3428937">
<ele>53.2</ele>
<time>2015-04-25T16:41:23Z</time>
</trkpt>
<trkpt lat="35.0571289" lon="32.3446179">
<ele>43.5</ele>
<time>2015-04-25T16:48:50Z</time>
</trkpt>
<trkpt lat="35.0568750" lon="32.3456896">
<ele>31.1</ele>
<time>2015-04-25T16:49:12Z</time>
</trkpt>
<trkpt lat="35.0563159" lon="32.3454745">
<ele>35.3</ele>
<time>2015-04-25T16:49:27Z</time>
</trkpt>
<trkpt lat="35.0561858" lon="32.3457000">
<ele>33.1</ele>
<time>2015-04-25T16:49:36Z</time>
</trkpt>
<trkpt lat="35.0562586" lon="32.3468232">
<ele>26.8</ele>
<time>2015-04-25T16:53:52Z</time>
</trkpt>
<trkpt lat="35.0561472" lon="32.3472437">
<ele>23.9</ele>
<time>2015-04-25T16:53:58Z</time>
</trkpt>
<trkpt lat="35.0559134" lon="32.3472279">
<ele>22.4</ele>
<time>2015-04-25T16:54:03Z</time>
</trkpt>
<trkpt lat="35.0554707" lon="32.3467778">
<ele>25.5</ele>
<time>2015-04-25T16:54:15Z</time>
</trkpt>
<trkpt lat="35.0551242" lon="32.3473885">
<ele>25.3</ele>
<time>2015-04-25T16:54:35Z</time>
</trkpt>
<trkpt lat="35.0539508" lon="32.3478171">
<ele>30.1</ele>
<time>2015-04-25T16:55:30Z</time>
</trkpt>
<trkpt lat="35.0504972" lon="32.3530291">
<ele>24.7</ele>
<time>2015-04-25T16:57:46Z</time>
</trkpt>
<trkpt lat="35.0469999" lon="32.3557032">
<ele>19.0</ele>
<time>2015-04-25T16:59:23Z</time>
</trkpt>
<trkpt lat="35.0470360" lon="32.3566030">
<ele>20.0</ele>
<time>2015-04-25T16:59:42Z</time>
</trkpt>
<trkpt lat="35.0468770" lon="32.3571980">
<ele>19.3</ele>
<time>2015-04-25T16:59:58Z</time>
</trkpt>
<trkpt lat="35.0455868" lon="32.3583009">
<ele>14.6</ele>
<time>2015-04-25T17:00:31Z</time>
</trkpt>
<trkpt lat="35.0441377" lon="32.3618604">
<ele>23.4</ele>
<time>2015-04-25T17:02:12Z</time>
</trkpt>
<trkpt lat="35.0434683" lon="32.3627866">
<ele>18.6</ele>
<time>2015-04-25T17:02:32Z</time>
</trkpt>
<trkpt lat="35.0436673" lon="32.3643550">
<ele>22.6</ele>
<time>2015-04-25T17:02:57Z</time>
</trkpt>
<trkpt lat="35.0427291" lon="32.3675311">
<ele>24.0</ele>
<time>2015-04-25T17:04:22Z</time>
</trkpt>
<trkpt lat="35.0426842" lon="32.3721981">
<ele>30.7</ele>
<time>2015-04-25T17:05:48Z</time>
</trkpt>
<trkpt lat="35.0424209" lon="32.3729089">
<ele>25.1</ele>
<time>2015-04-25T17:06:01Z</time>
</trkpt>
<trkpt lat="35.0419532" lon="32.3734741">
<ele>23.9</ele>
<time>2015-04-25T17:06:14Z</time>
</trkpt>
<trkpt lat="35.0412207" lon="32.3739952">
<ele>25.2</ele>
<time>2015-04-25T17:06:32Z</time>
</trkpt>
<trkpt lat="35.0399271" lon="32.3737679">
<ele>25.0</ele>
<time>2015-04-25T17:07:01Z</time>
</trkpt>
<trkpt lat="35.0381282" lon="32.3740211">
<ele>31.6</ele>
<time>2015-04-25T17:07:29Z</time>
</trkpt>
<trkpt lat="35.0375519" lon="32.3743583">
<ele>32.8</ele>
<time>2015-04-25T17:07:52Z</time>
</trkpt>
<trkpt lat="35.0373994" lon="32.3752285">
<ele>30.3</ele>
<time>2015-04-25T17:08:16Z</time>
</trkpt>
<trkpt lat="35.0385454" lon="32.3777086">
<ele>24.1</ele>
<time>2015-04-25T17:09:00Z</time>
</trkpt>
<trkpt lat="35.0392509" lon="32.3811418">
<ele>11.0</ele>
<time>2015-04-25T17:09:38Z</time>
</trkpt>
<trkpt lat="35.0408007" lon="32.3832662">
<ele>3.6</ele>
<time>2015-04-25T17:10:05Z</time>
</trkpt>
<trkpt lat="35.0411013" lon="32.3878655">
<ele>3.0</ele>
<time>2015-04-25T17:11:09Z</time>
</trkpt>
<trkpt lat="35.0410032" lon="32.3918801">
<ele>5.9</ele>
<time>2015-04-25T17:12:34Z</time>
</trkpt>
<trkpt lat="35.0411490" lon="32.3926889">
<ele>3.9</ele>
<time>2015-04-25T17:12:54Z</time>
</trkpt>
<trkpt lat="35.0405616" lon="32.3949568">
<ele>4.7</ele>
<time>2015-04-25T17:14:23Z</time>
</trkpt>
<trkpt lat="35.0405010" lon="32.3950504">
<ele>4.6</ele>
<time>2015-04-25T17:14:31Z</time>
</trkpt>
<trkpt lat="35.0404210" lon="32.3948737">
<ele>4.6</ele>
<time>2015-04-25T17:35:03Z</time>
</trkpt>
<trkpt lat="35.0393946" lon="32.3973690">
<ele>6.4</ele>
<time>2015-04-25T17:42:08Z</time>
</trkpt>
<trkpt lat="35.0390038" lon="32.4029029">
<ele>4.1</ele>
<time>2015-04-25T17:43:27Z</time>
</trkpt>
<trkpt lat="35.0383940" lon="32.4054586">
<ele>8.0</ele>
<time>2015-04-25T17:44:08Z</time>
</trkpt>
<trkpt lat="35.0389304" lon="32.4082223">
<ele>8.2</ele>
<time>2015-04-25T17:44:51Z</time>
</trkpt>
<trkpt lat="35.0395853" lon="32.4136066">
<ele>12.0</ele>
<time>2015-04-25T17:46:13Z</time>
</trkpt>
<trkpt lat="35.0392728" lon="32.4147410">
<ele>12.3</ele>
<time>2015-04-25T17:46:41Z</time>
</trkpt>
<trkpt lat="35.0385200" lon="32.4154736">
<ele>8.3</ele>
<time>2015-04-25T17:47:00Z</time>
</trkpt>
<trkpt lat="35.0382140" lon="32.4159956">
<ele>8.7</ele>
<time>2015-04-25T17:47:11Z</time>
</trkpt>
<trkpt lat="35.0410723" lon="32.4173612">
<ele>6.1</ele>
<time>2015-04-25T17:48:04Z</time>
</trkpt>
<trkpt lat="35.0406518" lon="32.4182899">
<ele>7.5</ele>
<time>2015-04-25T17:48:28Z</time>
</trkpt>
<trkpt lat="35.0409285" lon="32.4191791">
<ele>7.1</ele>
<time>2015-04-25T17:48:46Z</time>
</trkpt>
<trkpt lat="35.0417216" lon="32.4201338">
<ele>11.5</ele>
<time>2015-04-25T17:49:12Z</time>
</trkpt>
<trkpt lat="35.0417400" lon="32.4213394">
<ele>6.5</ele>
<time>2015-04-25T17:49:30Z</time>
</trkpt>
<trkpt lat="35.0421714" lon="32.4217637">
<ele>7.5</ele>
<time>2015-04-25T17:49:40Z</time>
</trkpt>
<trkpt lat="35.0421154" lon="32.4223263">
<ele>4.7</ele>
<time>2015-04-25T17:49:49Z</time>
</trkpt>
<trkpt lat="35.0419027" lon="32.4226430">
<ele>5.5</ele>
<time>2015-04-25T17:49:55Z</time>
</trkpt>
<trkpt lat="35.0413739" lon="32.4229069">
<ele>6.9</ele>
<time>2015-04-25T17:50:05Z</time>
</trkpt>
<trkpt lat="35.0392435" lon="32.4247579">
<ele>16.9</ele>
<time>2015-04-25T17:51:18Z</time>
</trkpt>
<trkpt lat="35.0392154" lon="32.4249251">
<ele>17.0</ele>
<time>2015-04-25T17:51:29Z</time>
</trkpt>
<trkpt lat="35.0398874" lon="32.4258994">
<ele>11.3</ele>
<time>2015-04-25T17:51:47Z</time>
</trkpt>
<trkpt lat="35.0407697" lon="32.4277683">
<ele>11.2</ele>
<time>2015-04-25T17:52:16Z</time>
</trkpt>
<trkpt lat="35.0449346" lon="32.4330806">
<ele>6.9</ele>
<time>2015-04-25T17:55:57Z</time>
</trkpt>
<trkpt lat="35.0460997" lon="32.4356006">
<ele>5.8</ele>
<time>2015-04-25T17:56:52Z</time>
</trkpt>
<trkpt lat="35.0465964" lon="32.4374801">
<ele>7.5</ele>
<time>2015-04-25T18:00:18Z</time>
</trkpt>
<trkpt lat="35.0471183" lon="32.4385761">
<ele>7.6</ele>
<time>2015-04-25T18:00:50Z</time>
</trkpt>
<trkpt lat="35.0481189" lon="32.4398486">
<ele>6.9</ele>
<time>2015-04-25T18:01:21Z</time>
</trkpt>
<trkpt lat="35.0490681" lon="32.4405558">
<ele>5.4</ele>
<time>2015-04-25T18:01:44Z</time>
</trkpt>
<trkpt lat="35.0496368" lon="32.4413266">
<ele>4.6</ele>
<time>2015-04-25T18:02:00Z</time>
</trkpt>
<trkpt lat="35.0500169" lon="32.4427205">
<ele>4.7</ele>
<time>2015-04-25T18:02:28Z</time>
</trkpt>
<trkpt lat="35.0486581" lon="32.4435298">
<ele>9.7</ele>
<time>2015-04-25T18:03:07Z</time>
</trkpt>
<trkpt lat="35.0486142" lon="32.4437178">
<ele>10.5</ele>
<time>2015-04-25T18:03:15Z</time>
</trkpt>
<trkpt lat="35.0507154" lon="32.4470369">
<ele>8.0</ele>
<time>2015-04-25T18:04:38Z</time>
</trkpt>
<trkpt lat="35.0543498" lon="32.4542017">
<ele>11.3</ele>
<time>2015-04-25T18:06:44Z</time>
</trkpt>
<trkpt lat="35.0548503" lon="32.4545660">
<ele>12.4</ele>
<time>2015-04-25T18:06:53Z</time>
</trkpt>
<trkpt lat="35.0569566" lon="32.4548744">
<ele>6.1</ele>
<time>2015-04-25T18:07:23Z</time>
</trkpt>
<trkpt lat="35.0574109" lon="32.4551467">
<ele>5.0</ele>
<time>2015-04-25T18:07:30Z</time>
</trkpt>
<trkpt lat="35.0589109" lon="32.4577402">
<ele>4.2</ele>
<time>2015-04-25T18:08:09Z</time>
</trkpt>
<trkpt lat="35.0598810" lon="32.4589783">
<ele>7.1</ele>
<time>2015-04-25T18:08:34Z</time>
</trkpt>
<trkpt lat="35.0606680" lon="32.4608262">
<ele>7.3</ele>
<time>2015-04-25T18:09:24Z</time>
</trkpt>
<trkpt lat="35.0632990" lon="32.4645533">
<ele>5.2</ele>
<time>2015-04-25T18:11:12Z</time>
</trkpt>
<trkpt lat="35.0649172" lon="32.4664598">
<ele>5.4</ele>
<time>2015-04-25T18:12:06Z</time>
</trkpt>
<trkpt lat="35.0665016" lon="32.4694558">
<ele>7.3</ele>
<time>2015-04-25T18:13:21Z</time>
</trkpt>
<trkpt lat="35.0664146" lon="32.4694181">
<ele>7.1</ele>
<time>2015-04-25T18:13:40Z</time>
</trkpt>
<trkpt lat="35.0674454" lon="32.4703553">
<ele>8.0</ele>
<time>2015-04-25T18:26:16Z</time>
</trkpt>
<trkpt lat="35.0698231" lon="32.4736444">
<ele>4.5</ele>
<time>2015-04-25T18:27:35Z</time>
</trkpt>
<trkpt lat="35.0738073" lon="32.4783983">
<ele>4.3</ele>
<time>2015-04-25T18:29:27Z</time>
</trkpt>
<trkpt lat="35.0767145" lon="32.4816979">
<ele>5.4</ele>
<time>2015-04-25T18:30:52Z</time>
</trkpt>
<trkpt lat="35.0775688" lon="32.4822331">
<ele>3.6</ele>
<time>2015-04-25T18:31:10Z</time>
</trkpt>
<trkpt lat="35.0799234" lon="32.4848298">
<ele>4.3</ele>
<time>2015-04-25T18:32:07Z</time>
</trkpt>
<trkpt lat="35.0826956" lon="32.4874078">
<ele>3.4</ele>
<time>2015-04-25T18:33:07Z</time>
</trkpt>
<trkpt lat="35.0865249" lon="32.4907104">
<ele>2.8</ele>
<time>2015-04-25T18:34:24Z</time>
</trkpt>
<trkpt lat="35.0887144" lon="32.4923244">
<ele>4.1</ele>
<time>2015-04-25T18:35:07Z</time>
</trkpt>
<trkpt lat="35.0938844" lon="32.4969235">
<ele>4.8</ele>
<time>2015-04-25T18:36:55Z</time>
</trkpt>
<trkpt lat="35.0967655" lon="32.4986475">
<ele>5.0</ele>
<time>2015-04-25T18:37:46Z</time>
</trkpt>
<trkpt lat="35.1007281" lon="32.5014836">
<ele>3.7</ele>
<time>2015-04-25T18:38:53Z</time>
</trkpt>
<trkpt lat="35.1041832" lon="32.5037170">
<ele>5.4</ele>
<time>2015-04-25T18:39:58Z</time>
</trkpt>
<trkpt lat="35.1056036" lon="32.5040843">
<ele>5.2</ele>
<time>2015-04-25T18:40:20Z</time>
</trkpt>
<trkpt lat="35.1061906" lon="32.5044358">
<ele>4.3</ele>
<time>2015-04-25T18:40:30Z</time>
</trkpt>
<trkpt lat="35.1105274" lon="32.5074019">
<ele>6.2</ele>
<time>2015-04-25T18:42:03Z</time>
</trkpt>
<trkpt lat="35.1108661" lon="32.5077156">
<ele>7.4</ele>
<time>2015-04-25T18:42:12Z</time>
</trkpt>
<trkpt lat="35.1107909" lon="32.5079957">
<ele>5.4</ele>
<time>2015-04-25T18:42:22Z</time>
</trkpt>
</trkseg>
</trk>
</gpx>